Time;durP1;ratioP1;P1;durP2;ratioP2;P2;SDS_P1;SDS_P2;PMS_P1;PMS_P2;Temp;Humidity;BMP_temperature;BMP_pressure;BME280_temperature;BME280_humidity;BME280_pressure;Samples;Min_cycle;Max_cycle;Signal;HPM_P1;HPM_P2
2021/08/28 00:02:01;;;;;;;30.75;21.20;;;17.70;79.30;;;;;;5058096;28;20045;-42
2021/08/28 00:04:28;;;;;;;26.48;19.77;;;17.70;79.30;;;;;;5058191;28;20057;-43
2021/08/28 00:06:54;;;;;;;32.83;22.23;;;17.70;79.40;;;;;;5057150;28;20036;-43
2021/08/28 00:09:19;;;;;;;28.50;19.45;;;17.70;79.40;;;;;;5057941;28;20041;-42
2021/08/28 00:11:45;;;;;;;30.83;22.65;;;17.70;79.30;;;;;;5058070;28;20047;-43
2021/08/28 00:14:10;;;;;;;26.23;19.90;;;17.70;79.40;;;;;;5058053;28;20025;-41
2021/08/28 00:16:36;;;;;;;27.45;19.70;;;17.70;79.40;;;;;;5057603;28;20136;-35
2021/08/28 00:19:02;;;;;;;25.55;20.60;;;17.70;79.40;;;;;;5057972;28;20115;-33
2021/08/28 00:21:28;;;;;;;28.33;20.85;;;17.70;79.40;;;;;;5057527;28;20021;-33
2021/08/28 00:23:54;;;;;;;27.73;21.63;;;17.70;79.50;;;;;;5057789;28;20025;-34
2021/08/28 00:26:19;;;;;;;28.05;21.67;;;17.70;79.60;;;;;;5057773;28;20052;-35
2021/08/28 00:28:45;;;;;;;34.20;22.30;;;17.60;79.50;;;;;;5057776;28;20056;-35
2021/08/28 00:31:11;;;;;;;27.02;21.70;;;17.60;79.30;;;;;;5057859;28;20029;-34
2021/08/28 00:33:36;;;;;;;30.73;20.58;;;17.60;79.20;;;;;;5058007;28;20025;-35
2021/08/28 00:36:02;;;;;;;35.55;24.48;;;17.60;79.20;;;;;;5058096;28;20108;-33
2021/08/28 00:38:28;;;;;;;27.13;20.83;;;17.60;79.20;;;;;;5057498;28;20032;-32
2021/08/28 00:40:56;;;;;;;32.30;21.92;;;17.60;79.30;;;;;;5057824;28;20029;-34
2021/08/28 00:43:27;;;;;;;29.63;20.73;;;17.60;79.40;;;;;;5057454;28;20033;-33
2021/08/28 00:45:52;;;;;;;;;;;17.60;79.50;;;;;;5058153;28;20413;-33
2021/08/28 00:48:18;;;;;;;27.85;20.23;;;17.50;79.00;;;;;;5057341;28;19905;-34
2021/08/28 00:50:44;;;;;;;30.10;21.73;;;17.50;79.40;;;;;;5057595;28;20045;-32
2021/08/28 00:53:12;;;;;;;30.88;20.88;;;17.50;79.60;;;;;;5057051;28;20025;-35
2021/08/28 00:55:46;;;;;;;28.58;21.48;;;17.50;79.60;;;;;;5057424;28;20043;-34
2021/08/28 00:58:12;;;;;;;30.20;21.30;;;17.50;79.70;;;;;;5057308;28;20072;-35
2021/08/28 01:00:52;;;;;;;29.88;20.45;;;17.50;79.70;;;;;;5057380;28;20357;-34
2021/08/28 01:03:21;;;;;;;32.25;20.15;;;17.50;79.60;;;;;;5057269;28;20029;-35
2021/08/28 01:05:57;;;;;;;32.35;22.08;;;17.40;79.60;;;;;;5056958;28;20037;-33
2021/08/28 01:08:44;;;;;;;30.75;21.90;;;17.40;79.60;;;;;;5057064;28;20029;-35
2021/08/28 01:11:31;;;;;;;31.27;20.63;;;17.40;79.60;;;;;;5056979;28;20040;-35
2021/08/28 01:14:04;;;;;;;29.20;21.38;;;17.40;79.70;;;;;;5057025;28;20029;-32
2021/08/28 01:16:31;;;;;;;28.52;21.48;;;17.40;79.80;;;;;;5056651;28;20044;-33
2021/08/28 01:18:57;;;;;;;28.77;20.95;;;17.40;79.80;;;;;;5056619;28;20025;-32
2021/08/28 01:21:35;;;;;;;30.98;21.80;;;17.30;79.80;;;;;;5056742;28;20025;-35
2021/08/28 01:24:05;;;;;;;29.40;20.67;;;17.40;79.90;;;;;;5056640;28;20080;-33
2021/08/28 01:26:39;;;;;;;27.95;19.73;;;17.30;80.00;;;;;;5056505;28;20111;-32
2021/08/28 01:29:20;;;;;;;30.05;20.95;;;17.30;80.00;;;;;;5056640;28;20033;-40
2021/08/28 01:31:49;;;;;;;33.08;20.83;;;17.30;80.00;;;;;;5056558;28;20021;-32
2021/08/28 01:34:17;;;;;;;32.95;22.30;;;17.30;80.70;;;;;;5056541;28;20037;-34
2021/08/28 01:36:46;;;;;;;31.40;21.75;;;17.30;80.30;;;;;;5056342;28;20025;-35
2021/08/28 01:39:12;;;;;;;29.75;20.90;;;17.30;80.40;;;;;;5056572;28;20040;-32
2021/08/28 01:41:39;;;;;;;30.67;21.08;;;17.30;80.40;;;;;;5056247;28;20021;-33
2021/08/28 01:44:09;;;;;;;29.05;21.23;;;17.30;80.40;;;;;;5056579;28;20036;-35
2021/08/28 01:46:36;;;;;;;27.70;20.65;;;17.20;80.50;;;;;;5056624;28;20356;-33
2021/08/28 01:49:02;;;;;;;29.40;19.58;;;17.20;80.50;;;;;;5056187;28;20029;-32
2021/08/28 01:51:28;;;;;;;28.30;19.23;;;17.20;80.40;;;;;;5056044;28;20021;-33
2021/08/28 01:53:54;;;;;;;28.55;20.20;;;17.20;80.50;;;;;;5056202;28;20052;-32
2021/08/28 01:56:20;;;;;;;29.08;20.70;;;17.20;80.50;;;;;;5056037;28;20017;-34
2021/08/28 01:58:46;;;;;;;30.15;20.83;;;17.20;80.60;;;;;;5055904;28;20017;-35
2021/08/28 02:01:12;;;;;;;28.85;19.80;;;17.20;80.60;;;;;;5055869;28;20021;-34
2021/08/28 02:03:37;;;;;;;25.23;20.25;;;17.20;80.80;;;;;;5055775;28;20032;-33
2021/08/28 02:06:04;;;;;;;28.55;20.52;;;17.20;80.70;;;;;;5055784;28;20075;-32
2021/08/28 02:08:53;;;;;;;25.65;19.35;;;17.20;80.80;;;;;;5056055;28;20025;-35
2021/08/28 02:11:24;;;;;;;30.40;19.48;;;17.20;80.80;;;;;;5055598;28;20053;-34
2021/08/28 02:13:58;;;;;;;23.98;19.00;;;17.20;81.00;;;;;;5055750;28;20017;-33
2021/08/28 02:16:26;;;;;;;24.98;18.50;;;17.20;81.10;;;;;;5055580;28;20345;-33
2021/08/28 02:19:07;;;;;;;24.50;17.90;;;17.20;81.20;;;;;;5055806;28;20013;-32
2021/08/28 02:21:34;;;;;;;27.83;20.55;;;17.30;81.30;;;;;;5054136;28;20055;-34
2021/08/28 02:24:06;;;;;;;23.52;18.23;;;17.30;81.50;;;;;;5055563;28;20040;-33
2021/08/28 02:26:38;;;;;;;34.53;21.30;;;17.40;81.60;;;;;;5055542;28;20462;-33
2021/08/28 02:29:17;;;;;;;29.02;19.90;;;17.40;81.60;;;;;;5055174;28;20036;-33
2021/08/28 02:31:46;;;;;;;27.35;19.08;;;17.50;81.50;;;;;;5055553;28;20025;-33
2021/08/28 02:34:13;;;;;;;27.83;20.23;;;17.50;81.30;;;;;;5055455;28;20033;-34
2021/08/28 02:36:41;;;;;;;26.17;18.70;;;17.50;81.30;;;;;;5055418;28;20345;-35
2021/08/28 02:39:09;;;;;;;30.65;20.90;;;17.50;81.10;;;;;;5055565;28;20025;-33
2021/08/28 02:41:38;;;;;;;31.05;21.35;;;17.60;81.10;;;;;;5055735;28;20028;-33
2021/08/28 02:44:06;;;;;;;34.15;20.25;;;17.60;81.00;;;;;;5055739;28;20519;-33
2021/08/28 02:46:32;;;;;;;29.77;20.10;;;17.60;80.80;;;;;;5055688;28;20309;-34
2021/08/28 02:48:58;;;;;;;25.88;18.15;;;17.60;80.70;;;;;;5055518;28;20104;-34
2021/08/28 02:51:28;;;;;;;26.85;19.92;;;17.70;80.60;;;;;;5055589;28;20112;-34
2021/08/28 02:53:54;;;;;;;29.73;20.92;;;17.70;80.50;;;;;;5055351;28;20025;-35
2021/08/28 02:56:22;;;;;;;31.48;20.45;;;17.70;80.40;;;;;;5055469;28;20104;-35
2021/08/28 02:58:48;;;;;;;25.05;18.48;;;17.70;80.40;;;;;;5055341;28;20047;-32
2021/08/28 03:01:15;;;;;;;26.67;18.75;;;17.70;80.30;;;;;;5055540;28;20116;-34
2021/08/28 03:03:42;;;;;;;26.15;19.85;;;17.70;80.30;;;;;;5055168;28;20111;-33
2021/08/28 03:06:08;;;;;;;30.67;19.17;;;17.80;80.20;;;;;;5055235;28;20074;-33
2021/08/28 03:08:35;;;;;;;37.47;21.38;;;17.80;80.30;;;;;;5055609;28;20408;-33
2021/08/28 03:11:01;;;;;;;27.38;19.15;;;17.80;80.40;;;;;;5055150;28;20082;-33
2021/08/28 03:13:27;;;;;;;26.08;17.90;;;17.80;80.30;;;;;;5055293;28;20417;-32
2021/08/28 03:15:54;;;;;;;29.45;20.50;;;17.90;80.30;;;;;;5055584;28;20048;-34
2021/08/28 03:18:23;;;;;;;30.80;20.90;;;18.00;80.30;;;;;;5055415;28;20413;-34
2021/08/28 03:20:53;;;;;;;28.90;19.67;;;18.00;80.20;;;;;;5055461;28;20313;-34
2021/08/28 03:23:21;;;;;;;36.30;20.52;;;18.00;80.20;;;;;;5055244;28;20071;-33
2021/08/28 03:25:48;;;;;;;26.92;19.77;;;18.10;80.20;;;;;;5055222;28;20033;-35
2021/08/28 03:28:16;;;;;;;28.17;18.52;;;18.10;80.00;;;;;;5054899;28;20036;-35
2021/08/28 03:30:44;;;;;;;27.33;17.42;;;18.20;79.90;;;;;;5055296;28;20029;-32
2021/08/28 03:33:13;;;;;;;23.27;17.65;;;18.20;79.40;;;;;;5055205;28;20032;-33
2021/08/28 03:35:39;;;;;;;21.40;16.27;;;18.30;78.50;;;;;;5055095;28;20064;-34
2021/08/28 03:38:05;;;;;;;25.80;16.88;;;18.30;78.10;;;;;;5054907;28;20033;-33
2021/08/28 03:40:31;;;;;;;27.13;15.88;;;18.40;77.70;;;;;;5054976;28;20025;-35
2021/08/28 03:42:56;;;;;;;23.35;15.75;;;18.40;77.50;;;;;;5058483;28;20065;-33
2021/08/28 03:45:27;;;;;;;23.35;16.75;;;18.50;77.50;;;;;;5058765;28;20315;-33
2021/08/28 03:47:53;;;;;;;19.70;15.40;;;18.50;77.30;;;;;;5058109;28;20041;-35
2021/08/28 03:50:19;;;;;;;19.50;15.10;;;18.60;77.20;;;;;;5058779;28;20033;-34
2021/08/28 03:52:45;;;;;;;23.40;15.93;;;18.70;76.70;;;;;;5058135;28;20114;-33
2021/08/28 03:55:11;;;;;;;19.70;15.18;;;18.70;76.30;;;;;;5058526;28;20394;-33
2021/08/28 03:57:37;;;;;;;22.23;16.17;;;18.70;76.20;;;;;;5057961;28;20032;-33
2021/08/28 04:00:04;;;;;;;22.77;15.02;;;18.80;76.10;;;;;;5058379;28;20033;-33
2021/08/28 04:02:30;;;;;;;22.23;14.63;;;18.80;75.80;;;;;;5057984;28;20143;-34
2021/08/28 04:04:55;;;;;;;18.63;13.20;;;18.90;75.60;;;;;;5058233;28;20449;-33
2021/08/28 04:07:21;;;;;;;19.05;13.45;;;18.90;75.40;;;;;;5057852;28;20041;-36
2021/08/28 04:09:47;;;;;;;21.77;14.25;;;19.00;75.40;;;;;;5058080;28;20036;-33
2021/08/28 04:12:12;;;;;;;18.67;13.38;;;19.00;75.00;;;;;;5057927;28;20040;-35
2021/08/28 04:14:38;;;;;;;20.25;13.25;;;19.10;74.90;;;;;;5058093;28;20294;-33
2021/08/28 04:17:04;;;;;;;20.05;14.20;;;19.10;74.70;;;;;;5057654;28;20037;-32
2021/08/28 04:19:30;;;;;;;19.50;12.23;;;19.20;74.20;;;;;;5057790;28;20037;-33
2021/08/28 04:21:55;;;;;;;19.55;13.32;;;19.20;74.00;;;;;;5057783;28;20075;-35
2021/08/28 04:24:21;;;;;;;20.10;12.98;;;19.30;74.00;;;;;;5057972;28;20025;-33
2021/08/28 04:26:47;;;;;;;17.85;12.43;;;19.40;73.80;;;;;;5057733;28;20402;-33
2021/08/28 04:29:12;;;;;;;18.95;12.85;;;19.40;73.70;;;;;;5057604;28;20040;-32
2021/08/28 04:31:39;;;;;;;21.17;14.02;;;19.50;73.10;;;;;;5057556;28;20337;-34
2021/08/28 04:34:04;;;;;;;22.48;15.23;;;19.50;72.80;;;;;;5057399;28;20033;-35
2021/08/28 04:36:30;;;;;;;26.25;13.90;;;19.60;72.80;;;;;;5057470;28;20519;-35
2021/08/28 04:38:55;;;;;;;24.17;14.50;;;19.60;72.70;;;;;;5057613;28;20021;-33
2021/08/28 04:41:21;;;;;;;24.70;14.60;;;19.70;72.40;;;;;;5057356;28;20027;-33
2021/08/28 04:43:47;;;;;;;30.33;15.75;;;19.70;72.30;;;;;;5057346;28;20029;-35
2021/08/28 04:46:12;;;;;;;22.98;15.35;;;19.70;72.10;;;;;;5057584;28;20047;-35
2021/08/28 04:48:38;;;;;;;27.83;16.67;;;19.80;72.30;;;;;;5057375;28;20031;-35
2021/08/28 04:51:04;;;;;;;31.50;16.63;;;19.80;72.10;;;;;;5057065;28;20131;-32
2021/08/28 04:53:29;;;;;;;36.03;17.60;;;19.90;72.00;;;;;;5056553;28;20283;-34
2021/08/28 04:55:55;;;;;;;33.45;19.90;;;19.90;71.90;;;;;;5057340;28;20397;-34
2021/08/28 04:58:21;;;;;;;32.60;18.83;;;19.90;71.80;;;;;;5056882;28;20025;-33
2021/08/28 05:00:46;;;;;;;34.95;19.10;;;20.00;71.90;;;;;;5057217;28;20029;-33
2021/08/28 05:03:12;;;;;;;47.72;21.10;;;20.00;71.70;;;;;;5057036;28;20066;-33
2021/08/28 05:05:38;;;;;;;52.30;22.40;;;20.10;71.50;;;;;;5056520;28;20040;-34
2021/08/28 05:08:03;;;;;;;38.22;19.70;;;20.20;70.80;;;;;;5056681;28;20029;-34
2021/08/28 05:10:29;;;;;;;45.67;20.90;;;20.20;70.60;;;;;;5057136;28;20321;-33
2021/08/28 05:12:55;;;;;;;43.35;19.58;;;20.30;70.80;;;;;;5056261;28;20029;-33
2021/08/28 05:15:21;;;;;;;31.80;17.90;;;20.30;70.50;;;;;;5056775;28;20036;-33
2021/08/28 05:17:47;;;;;;;32.00;18.40;;;20.30;70.10;;;;;;5056048;28;20089;-33
2021/08/28 05:20:12;;;;;;;27.60;16.65;;;20.40;70.00;;;;;;5056778;28;20029;-34
2021/08/28 05:22:38;;;;;;;29.40;17.65;;;20.40;69.90;;;;;;5056290;28;20353;-32
2021/08/28 05:25:04;;;;;;;33.17;18.40;;;20.40;70.10;;;;;;5056561;28;20021;-35
2021/08/28 05:27:30;;;;;;;27.38;17.38;;;20.50;70.00;;;;;;5056083;28;20032;-35
2021/08/28 05:29:56;;;;;;;36.65;19.10;;;20.50;69.50;;;;;;5056445;28;20040;-35
2021/08/28 05:32:22;;;;;;;29.15;18.45;;;20.50;69.10;;;;;;5056230;28;20116;-33
2021/08/28 05:34:49;;;;;;;28.73;17.23;;;20.60;69.20;;;;;;5056285;28;20041;-33
2021/08/28 05:37:15;;;;;;;45.28;20.83;;;20.60;69.20;;;;;;5055775;28;20175;-33
2021/08/28 05:39:40;;;;;;;45.97;22.60;;;20.70;68.80;;;;;;5055939;28;20036;-35
2021/08/28 05:42:06;;;;;;;43.97;21.70;;;20.70;68.20;;;;;;5056177;28;20066;-35
2021/08/28 05:44:31;;;;;;;41.53;21.77;;;20.80;68.20;;;;;;5056460;28;20120;-34
2021/08/28 05:46:57;;;;;;;53.22;25.10;;;20.80;67.90;;;;;;5055980;28;20028;-35
2021/08/28 05:49:23;;;;;;;55.75;26.85;;;20.90;68.30;;;;;;5056073;28;20064;-34
2021/08/28 05:51:48;;;;;;;70.40;30.00;;;20.90;67.40;;;;;;5056110;28;20123;-35
2021/08/28 05:54:14;;;;;;;63.45;29.02;;;21.00;67.10;;;;;;5055829;28;20028;-34
2021/08/28 05:56:40;;;;;;;67.38;29.20;;;21.00;67.10;;;;;;5055774;28;20056;-33
2021/08/28 05:59:05;;;;;;;58.10;28.55;;;21.10;66.90;;;;;;5055638;28;20032;-36
2021/08/28 06:01:31;;;;;;;54.47;24.80;;;21.20;66.80;;;;;;5055919;28;20116;-35
2021/08/28 06:03:57;;;;;;;55.15;26.35;;;21.30;66.60;;;;;;5054857;28;20024;-33
2021/08/28 06:06:22;;;;;;;46.47;23.45;;;21.40;66.30;;;;;;5055499;28;20036;-35
2021/08/28 06:08:48;;;;;;;43.30;20.25;;;21.40;65.80;;;;;;5055752;28;20025;-35
2021/08/28 06:11:13;;;;;;;23.08;15.40;;;21.50;65.50;;;;;;5055326;28;20029;-33
2021/08/28 06:13:39;;;;;;;27.80;15.23;;;21.60;65.30;;;;;;5055709;28;20029;-33
2021/08/28 06:16:05;;;;;;;23.60;14.73;;;21.60;65.40;;;;;;5055222;28;20033;-33
2021/08/28 06:18:31;;;;;;;20.80;12.90;;;21.80;65.50;;;;;;5055695;28;20021;-35
2021/08/28 06:20:58;;;;;;;20.65;12.85;;;21.90;65.70;;;;;;5055322;28;20029;-34
2021/08/28 06:23:24;;;;;;;18.67;12.13;;;22.00;65.40;;;;;;5055641;28;20287;-35
2021/08/28 06:25:50;;;;;;;15.98;10.98;;;22.20;65.50;;;;;;5055402;28;20075;-33
2021/08/28 06:28:16;;;;;;;17.27;11.60;;;22.30;65.10;;;;;;5055480;28;20029;-33
2021/08/28 06:30:42;;;;;;;15.32;10.75;;;22.40;64.90;;;;;;5055507;28;20090;-33
2021/08/28 06:33:08;;;;;;;16.95;10.48;;;22.50;63.90;;;;;;5054993;28;20029;-32
2021/08/28 06:35:34;;;;;;;17.55;10.88;;;22.50;63.60;;;;;;5055362;28;20039;-35
2021/08/28 06:38:00;;;;;;;16.52;10.73;;;22.50;63.20;;;;;;5054894;28;20032;-31
2021/08/28 06:40:25;;;;;;;12.82;10.30;;;22.60;63.10;;;;;;5055570;28;20367;-35
2021/08/28 06:42:51;;;;;;;17.45;10.52;;;22.60;63.10;;;;;;5055026;28;20057;-43
2021/08/28 06:45:17;;;;;;;18.92;11.55;;;22.60;63.40;;;;;;5055139;28;20045;-43
2021/08/28 06:47:43;;;;;;;19.77;11.15;;;22.60;63.80;;;;;;5055094;28;20025;-43
2021/08/28 06:50:09;;;;;;;19.77;10.38;;;22.70;63.80;;;;;;5055338;28;20037;-42
2021/08/28 06:52:35;;;;;;;18.85;11.95;;;22.70;64.10;;;;;;5055209;28;20104;-42
2021/08/28 06:55:01;;;;;;;16.60;12.73;;;22.80;64.40;;;;;;5055063;28;20382;-42
2021/08/28 06:57:27;;;;;;;16.40;11.02;;;22.80;64.30;;;;;;5054853;28;20112;-43
2021/08/28 06:59:53;;;;;;;16.38;11.65;;;22.90;64.30;;;;;;5055187;28;20076;-43
2021/08/28 07:02:18;;;;;;;16.02;11.90;;;22.90;63.30;;;;;;5054827;28;20017;-43
2021/08/28 07:04:44;;;;;;;17.75;11.57;;;23.00;63.20;;;;;;5054850;28;20029;-43
2021/08/28 07:07:10;;;;;;;15.57;11.10;;;23.00;63.00;;;;;;5054961;28;20033;-43
2021/08/28 07:09:36;;;;;;;15.48;11.88;;;23.10;63.40;;;;;;5054782;28;20091;-34
2021/08/28 07:12:02;;;;;;;16.35;13.35;;;23.20;62.40;;;;;;5054862;28;20025;-34
2021/08/28 07:14:27;;;;;;;17.08;12.40;;;23.20;62.40;;;;;;5054584;28;20063;-35
2021/08/28 07:16:53;;;;;;;20.40;11.35;;;23.20;62.50;;;;;;5058118;28;20452;-35
2021/08/28 07:19:18;;;;;;;13.68;10.50;;;23.30;62.40;;;;;;5058493;28;20107;-35
2021/08/28 07:21:44;;;;;;;17.48;10.38;;;23.30;62.10;;;;;;5058503;28;20427;-34
2021/08/28 07:24:10;;;;;;;13.23;10.15;;;23.40;62.70;;;;;;5058243;28;20397;-34
2021/08/28 07:26:35;;;;;;;15.18;9.95;;;23.50;62.70;;;;;;5058536;28;20309;-43
2021/08/28 07:29:01;;;;;;;15.32;10.40;;;23.50;62.40;;;;;;5058775;28;20166;-43
2021/08/28 07:31:27;;;;;;;13.75;9.35;;;23.60;62.40;;;;;;5058080;28;20017;-42
2021/08/28 07:33:52;;;;;;;15.52;8.77;;;23.70;61.80;;;;;;5058208;28;20101;-34
2021/08/28 07:36:18;;;;;;;13.88;8.30;;;23.70;61.80;;;;;;5058382;28;20044;-35
2021/08/28 07:38:44;;;;;;;14.20;9.35;;;23.80;61.80;;;;;;5058194;28;20102;-36
2021/08/28 07:41:09;;;;;;;14.40;9.48;;;23.80;61.60;;;;;;5058286;28;20021;-41
2021/08/28 07:43:35;;;;;;;16.95;8.45;;;23.80;61.60;;;;;;5058161;28;20037;-43
2021/08/28 07:46:01;;;;;;;13.45;8.55;;;23.90;61.80;;;;;;5058591;28;20064;-43
2021/08/28 07:48:26;;;;;;;12.65;9.10;;;23.90;62.30;;;;;;5058295;28;20032;-37
2021/08/28 07:50:52;;;;;;;11.80;9.35;;;24.00;62.40;;;;;;5058437;28;20095;-35
2021/08/28 07:53:18;;;;;;;9.57;7.32;;;24.00;62.40;;;;;;5057995;28;20036;-35
2021/08/28 07:55:44;;;;;;;12.10;9.43;;;24.00;62.10;;;;;;5058451;28;20121;-37
2021/08/28 07:58:09;;;;;;;13.73;8.55;;;24.10;61.90;;;;;;5058328;28;20036;-36
2021/08/28 08:00:35;;;;;;;9.98;7.78;;;24.00;61.90;;;;;;5058066;28;20041;-42
2021/08/28 08:03:01;;;;;;;13.40;8.45;;;24.10;62.20;;;;;;5058091;28;20052;-43
2021/08/28 08:05:27;;;;;;;15.10;9.40;;;24.10;62.40;;;;;;5057915;28;20413;-43
2021/08/28 08:07:52;;;;;;;18.63;16.48;;;24.10;62.20;;;;;;5053062;28;20178;-42
2021/08/28 08:10:18;;;;;;;12.15;9.60;;;24.10;62.20;;;;;;5057630;28;20298;-34
2021/08/28 08:12:44;;;;;;;11.60;10.05;;;24.10;62.10;;;;;;5056921;28;20044;-43
2021/08/28 08:15:10;;;;;;;8.88;7.63;;;24.20;62.30;;;;;;5057540;28;20044;-43
2021/08/28 08:17:35;;;;;;;16.77;9.77;;;24.20;62.10;;;;;;5056695;28;20111;-41
2021/08/28 08:20:02;;;;;;;11.43;8.25;;;24.30;62.40;;;;;;5057554;28;20064;-34
2021/08/28 08:22:28;;;;;;;13.38;9.05;;;24.20;62.40;;;;;;5057300;28;20028;-35
2021/08/28 08:24:54;;;;;;;10.85;9.05;;;24.30;62.60;;;;;;5057350;28;20318;-35
2021/08/28 08:27:19;;;;;;;11.82;8.20;;;24.20;62.80;;;;;;5055580;28;20384;-38
2021/08/28 08:29:45;;;;;;;13.15;9.00;;;24.20;62.90;;;;;;5056344;28;20074;-36
2021/08/28 08:32:10;;;;;;;14.25;10.43;;;24.20;62.80;;;;;;5056363;28;20049;-35
2021/08/28 08:34:36;;;;;;;14.07;8.95;;;24.30;63.20;;;;;;5056684;28;20487;-42
2021/08/28 08:37:02;;;;;;;14.82;8.35;;;24.30;63.10;;;;;;5056436;28;20371;-43
2021/08/28 08:39:27;;;;;;;16.75;8.85;;;24.40;62.60;;;;;;5056624;28;20417;-35
2021/08/28 08:41:55;;;;;;;17.70;8.98;;;24.40;62.60;;;;;;5056448;28;20029;-38
2021/08/28 08:44:22;;;;;;;15.70;9.73;;;24.40;62.60;;;;;;5056597;28;20033;-36
2021/08/28 08:46:50;;;;;;;15.30;9.68;;;24.40;62.60;;;;;;5056303;28;20047;-36
2021/08/28 08:49:17;;;;;;;11.27;8.32;;;24.50;62.60;;;;;;5056588;28;20033;-42
2021/08/28 08:51:44;;;;;;;14.75;9.38;;;24.50;62.70;;;;;;5056354;28;20064;-43
2021/08/28 08:54:11;;;;;;;14.15;9.73;;;24.50;62.80;;;;;;5056577;28;20372;-42
2021/08/28 08:56:37;;;;;;;13.70;9.45;;;24.60;62.90;;;;;;5056555;28;20067;-42
2021/08/28 08:59:03;;;;;;;14.07;8.75;;;24.60;62.50;;;;;;5056268;28;20063;-42
2021/08/28 09:01:29;;;;;;;12.95;8.75;;;24.60;62.40;;;;;;5056297;28;20036;-42
2021/08/28 09:03:56;;;;;;;15.20;9.13;;;24.60;62.70;;;;;;5055760;28;20017;-42
2021/08/28 09:06:22;;;;;;;10.68;8.32;;;24.70;62.90;;;;;;5056235;28;20029;-43
2021/08/28 09:08:48;;;;;;;13.20;9.18;;;24.70;62.80;;;;;;5055942;28;20116;-37
2021/08/28 09:11:26;;;;;;;13.18;8.73;;;24.70;62.70;;;;;;5056325;28;20079;-41
2021/08/28 09:14:18;;;;;;;13.77;9.18;;;24.80;63.00;;;;;;5054847;28;20027;-36
2021/08/28 09:16:44;;;;;;;11.90;8.55;;;24.80;63.00;;;;;;5055759;28;20056;-35
2021/08/28 09:19:10;;;;;;;9.45;7.43;;;24.90;63.00;;;;;;5055912;28;20317;-35
2021/08/28 09:21:36;;;;;;;10.30;7.85;;;25.00;62.90;;;;;;5054090;28;20025;-42
2021/08/28 09:24:10;;;;;;;11.02;7.75;;;25.00;62.70;;;;;;5056307;28;20029;-34
2021/08/28 09:26:45;;;;;;;12.85;7.35;;;25.10;62.20;;;;;;5056200;28;20486;-36
2021/08/28 09:29:15;;;;;;;17.92;8.07;;;25.20;61.90;;;;;;5056612;28;20048;-34
2021/08/28 09:31:49;;;;;;;9.75;7.45;;;25.20;61.90;;;;;;5056202;28;20025;-42
2021/08/28 09:34:29;;;;;;;8.35;6.85;;;25.40;61.60;;;;;;5056130;28;20151;-34
2021/08/28 09:37:03;;;;;;;9.43;7.45;;;25.40;61.20;;;;;;5055809;28;20053;-42
2021/08/28 09:39:36;;;;;;;11.30;7.88;;;25.50;61.20;;;;;;5056072;28;20045;-42
2021/08/28 09:42:02;;;;;;;12.30;7.88;;;25.50;61.30;;;;;;5055920;28;20070;-34
2021/08/28 09:44:34;;;;;;;12.27;7.82;;;25.50;61.20;;;;;;5056330;28;20151;-42
2021/08/28 09:47:12;;;;;;;9.18;7.40;;;25.60;61.00;;;;;;5055095;28;20371;-42
2021/08/28 09:49:43;;;;;;;11.52;7.80;;;25.60;60.80;;;;;;5056080;28;20371;-43
2021/08/28 09:52:31;;;;;;;8.10;7.10;;;25.70;60.80;;;;;;5056190;28;20515;-34
2021/08/28 09:54:57;;;;;;;9.77;6.88;;;25.70;60.60;;;;;;5055907;28;20037;-34
2021/08/28 09:57:28;;;;;;;8.38;7.43;;;25.70;60.40;;;;;;5055695;28;20033;-34
2021/08/28 10:00:00;;;;;;;8.98;6.88;;;25.80;59.70;;;;;;5056011;28;20060;-39
2021/08/28 10:02:26;;;;;;;8.57;7.68;;;25.90;59.40;;;;;;5055494;28;20032;-41
2021/08/28 10:05:01;;;;;;;9.05;7.10;;;26.00;59.30;;;;;;5055669;28;20102;-34
2021/08/28 10:07:32;;;;;;;8.52;7.72;;;26.00;58.80;;;;;;5055296;28;20051;-35
2021/08/28 10:10:05;;;;;;;9.15;7.60;;;26.10;58.60;;;;;;5055740;28;20037;-42
2021/08/28 10:12:33;;;;;;;11.13;8.32;;;26.20;58.80;;;;;;5055266;28;20055;-35
2021/08/28 10:15:00;;;;;;;8.70;7.68;;;26.20;57.70;;;;;;5055609;28;20377;-34
2021/08/28 10:17:27;;;;;;;9.43;7.53;;;26.10;57.40;;;;;;5054955;28;20037;-34
2021/08/28 10:19:55;;;;;;;10.23;8.23;;;26.20;57.80;;;;;;5055616;28;20031;-35
2021/08/28 10:22:24;;;;;;;7.63;6.93;;;26.20;57.90;;;;;;5055144;28;20258;-41
2021/08/28 10:24:54;;;;;;;9.13;7.32;;;26.20;57.90;;;;;;5055151;28;20032;-42
2021/08/28 10:27:22;;;;;;;7.55;6.75;;;26.20;57.40;;;;;;5054841;28;20405;-43
2021/08/28 10:29:48;;;;;;;9.90;8.30;;;26.30;56.90;;;;;;5054057;28;20036;-42
2021/08/28 10:32:14;;;;;;;11.80;8.43;;;26.30;57.00;;;;;;5055138;28;20086;-42
2021/08/28 10:34:40;;;;;;;9.77;7.43;;;26.30;57.30;;;;;;5053783;28;20029;-34
2021/08/28 10:37:06;;;;;;;10.00;8.52;;;26.40;57.30;;;;;;5055015;28;20368;-42
2021/08/28 10:39:33;;;;;;;10.20;8.82;;;26.40;57.50;;;;;;5055209;28;20025;-42
2021/08/28 10:41:59;;;;;;;8.95;8.02;;;26.40;57.80;;;;;;5055070;28;20036;-42
2021/08/28 10:44:25;;;;;;;11.43;8.98;;;26.40;57.50;;;;;;5055115;28;20029;-41
2021/08/28 10:46:51;;;;;;;8.10;7.05;;;26.50;57.50;;;;;;5055021;28;20121;-34
2021/08/28 10:49:21;;;;;;;8.80;7.35;;;26.50;57.30;;;;;;5055079;28;20025;-34
2021/08/28 10:51:55;;;;;;;10.07;7.95;;;26.50;56.70;;;;;;5058871;28;20037;-36
2021/08/28 10:54:29;;;;;;;8.57;7.68;;;26.50;56.70;;;;;;5059242;28;20025;-41
2021/08/28 10:56:57;;;;;;;9.07;7.70;;;26.60;56.60;;;;;;5058736;28;20033;-33
2021/08/28 10:59:29;;;;;;;9.23;7.25;;;26.60;56.80;;;;;;5057926;28;20021;-36
2021/08/28 11:02:06;;;;;;;8.32;7.40;;;26.70;56.30;;;;;;5059109;28;20107;-41
2021/08/28 11:04:46;;;;;;;9.48;7.70;;;26.80;55.90;;;;;;5059071;28;20028;-34
2021/08/28 11:07:22;;;;;;;;;;;26.80;55.70;;;;;;5059557;28;20032;-41
2021/08/28 11:10:21;;;;;;;10.32;6.85;;;26.80;56.10;;;;;;5058993;28;20276;-41
2021/08/28 11:12:55;;;;;;;7.05;5.93;;;26.90;55.10;;;;;;5057273;28;20076;-42
2021/08/28 11:15:24;;;;;;;10.52;6.50;;;27.00;55.00;;;;;;5059058;28;20037;-42
2021/08/28 11:17:50;;;;;;;9.00;6.97;;;27.00;54.90;;;;;;5058299;28;20053;-42
2021/08/28 11:20:35;;;;;;;9.48;6.10;;;27.10;54.40;;;;;;5058970;28;20052;-42
2021/08/28 11:23:05;;;;;;;7.90;6.57;;;27.20;53.50;;;;;;5058599;28;20057;-41
2021/08/28 11:25:33;;;;;;;9.60;6.50;;;27.20;53.50;;;;;;5058165;28;20025;-42
2021/08/28 11:27:59;;;;;;;7.05;6.35;;;27.20;53.50;;;;;;5058390;28;20325;-34
2021/08/28 11:30:46;;;;;;;6.70;5.85;;;27.30;53.20;;;;;;5058604;28;20306;-34
2021/08/28 11:33:35;;;;;;;7.88;6.55;;;27.40;52.80;;;;;;5058304;28;20158;-33
2021/08/28 11:36:05;;;;;;;6.90;6.20;;;27.40;53.40;;;;;;5058636;28;20029;-35
2021/08/28 11:38:46;;;;;;;8.60;6.10;;;27.60;53.10;;;;;;5058389;28;20029;-42
2021/08/28 11:41:17;;;;;;;9.73;7.10;;;27.70;52.90;;;;;;5057615;28;20036;-43
2021/08/28 11:43:44;;;;;;;6.80;5.85;;;27.80;52.60;;;;;;5058015;28;20134;-43
2021/08/28 11:46:18;;;;;;;10.88;6.10;;;27.80;51.80;;;;;;5057489;28;20029;-37
2021/08/28 11:48:46;;;;;;;8.07;5.97;;;27.90;51.20;;;;;;5057771;28;20391;-35
2021/08/28 11:51:17;;;;;;;7.38;6.50;;;27.90;52.30;;;;;;5057997;28;20025;-42
2021/08/28 11:53:45;;;;;;;9.73;6.28;;;28.10;52.00;;;;;;5057657;28;20133;-43
2021/08/28 11:56:17;;;;;;;6.15;5.22;;;28.20;51.70;;;;;;5057847;28;20060;-35
2021/08/28 11:58:55;;;;;;;10.10;6.50;;;28.40;51.00;;;;;;5057575;28;20325;-35
2021/08/28 12:01:28;;;;;;;6.13;5.53;;;28.50;51.40;;;;;;5057085;28;20025;-35
2021/08/28 12:03:55;;;;;;;11.50;6.00;;;28.70;51.00;;;;;;5057952;28;20052;-34
2021/08/28 12:06:24;;;;;;;6.15;5.40;;;28.90;50.20;;;;;;5057945;28;20554;-37
2021/08/28 12:08:50;;;;;;;7.45;6.05;;;29.10;48.30;;;;;;5057805;28;20024;-36
2021/08/28 12:11:16;;;;;;;8.07;5.65;;;29.20;49.10;;;;;;5057969;28;20303;-36
2021/08/28 12:13:53;;;;;;;7.55;6.47;;;29.30;48.80;;;;;;5057432;28;20044;-42
2021/08/28 12:16:38;;;;;;;10.52;5.88;;;29.50;48.80;;;;;;5057652;28;20381;-34
2021/08/28 12:19:16;;;;;;;8.25;5.57;;;29.70;48.90;;;;;;5057387;28;20421;-41
2021/08/28 12:21:43;;;;;;;7.30;5.88;;;29.80;48.50;;;;;;5057804;28;20321;-43
2021/08/28 12:24:15;;;;;;;6.70;5.50;;;30.00;47.40;;;;;;5057846;28;20021;-43
2021/08/28 12:26:42;;;;;;;6.85;5.63;;;30.10;46.60;;;;;;5057827;28;20376;-34
2021/08/28 12:29:08;;;;;;;10.48;5.90;;;30.20;46.90;;;;;;5057912;28;20326;-39
2021/08/28 12:31:34;;;;;;;11.20;6.07;;;30.30;46.30;;;;;;5057172;28;20071;-35
2021/08/28 12:34:24;;;;;;;7.82;5.07;;;30.40;46.00;;;;;;5056164;28;20029;-43
2021/08/28 12:36:50;;;;;;;6.03;5.43;;;30.60;46.10;;;;;;5056828;28;20041;-42
2021/08/28 12:39:16;;;;;;;6.47;5.65;;;30.70;46.10;;;;;;5057082;28;20035;-43